createdAt,value
2017-08-24T00:00:08.265Z,71.10
2017-08-24T00:02:36.544Z,70.40
2017-08-24T00:05:05.597Z,70.10
2017-08-24T00:07:34.107Z,70.00
2017-08-24T00:10:02.320Z,69.70
2017-08-24T00:12:30.586Z,70.30
2017-08-24T00:14:59.030Z,71.20
2017-08-24T00:17:28.163Z,71.50
2017-08-24T00:19:56.518Z,71.40
2017-08-24T00:22:25.631Z,70.70
2017-08-24T00:24:54.794Z,70.60
2017-08-24T00:27:23.020Z,70.50
2017-08-24T00:29:51.270Z,70.70
2017-08-24T00:32:19.557Z,71.20
2017-08-24T00:34:47.831Z,71.60
2017-08-24T00:37:16.207Z,72.10
2017-08-24T00:39:44.583Z,72.00
2017-08-24T00:42:13.629Z,72.30
2017-08-24T00:44:42.927Z,72.20
2017-08-24T00:47:11.193Z,72.50
2017-08-24T00:49:39.978Z,72.50
2017-08-24T00:52:08.271Z,72.80
2017-08-24T00:54:36.515Z,72.40
2017-08-24T00:57:04.758Z,72.50
2017-08-24T00:59:33.025Z,72.60
2017-08-24T01:02:03.054Z,73.10
2017-08-24T01:04:31.550Z,73.10
2017-08-24T01:07:00.130Z,73.00
2017-08-24T01:09:29.243Z,73.70
2017-08-24T01:11:57.515Z,73.70
2017-08-24T01:14:25.789Z,74.00
2017-08-24T01:16:54.038Z,74.10
2017-08-24T01:19:23.561Z,74.30
2017-08-24T01:21:51.816Z,74.80
2017-08-24T01:24:20.068Z,74.90
2017-08-24T01:26:48.347Z,75.10
2017-08-24T01:29:16.755Z,75.60
2017-08-24T01:31:45.127Z,75.80
2017-08-24T01:34:13.403Z,75.60
2017-08-24T01:36:41.630Z,74.60
2017-08-24T01:39:09.970Z,74.20
2017-08-24T01:41:38.248Z,74.50
2017-08-24T01:44:06.523Z,73.80
2017-08-24T01:46:34.777Z,73.50
2017-08-24T01:49:03.241Z,73.30
2017-08-24T01:51:31.576Z,73.30
2017-08-24T01:53:59.987Z,73.20
2017-08-24T01:56:28.346Z,73.20
2017-08-24T01:58:56.641Z,73.20
2017-08-24T02:01:24.910Z,73.40
2017-08-24T02:03:53.160Z,73.60
2017-08-24T02:06:21.387Z,72.90
2017-08-24T02:08:49.676Z,72.80
2017-08-24T02:11:17.993Z,72.80
2017-08-24T02:13:46.229Z,73.70
2017-08-24T02:16:14.525Z,74.20
2017-08-24T02:18:42.752Z,74.30
2017-08-24T02:21:11.761Z,74.30
2017-08-24T02:23:40.044Z,74.30
2017-08-24T02:26:08.303Z,74.60
2017-08-24T02:28:36.658Z,74.90
2017-08-24T02:31:05.381Z,75.60
2017-08-24T02:33:33.634Z,75.90
2017-08-24T02:36:02.052Z,75.60
2017-08-24T02:38:30.351Z,75.40
2017-08-24T02:40:58.646Z,75.00
2017-08-24T02:43:26.909Z,75.20
2017-08-24T02:45:55.154Z,75.10
2017-08-24T02:48:23.417Z,75.10
2017-08-24T02:50:51.792Z,74.50
2017-08-24T02:53:20.119Z,74.80
2017-08-24T02:55:48.447Z,75.20
2017-08-24T02:58:16.727Z,75.90
2017-08-24T03:00:44.989Z,75.10
2017-08-24T03:03:13.277Z,75.60
2017-08-24T03:05:41.538Z,75.40
2017-08-24T03:08:09.905Z,74.80
2017-08-24T03:10:38.963Z,75.10
2017-08-24T03:13:07.212Z,75.10
2017-08-24T03:15:35.451Z,74.60
2017-08-24T03:18:03.737Z,75.00
2017-08-24T03:20:31.972Z,75.00
2017-08-24T03:23:00.376Z,75.00
2017-08-24T03:25:29.407Z,74.60
2017-08-24T03:27:57.643Z,74.50
2017-08-24T03:30:25.887Z,74.60
2017-08-24T03:32:54.215Z,74.40
2017-08-24T03:35:22.482Z,75.10
2017-08-24T03:37:50.747Z,74.80
2017-08-24T03:40:19.763Z,75.20
2017-08-24T03:42:48.269Z,75.20
2017-08-24T03:45:16.802Z,75.50
2017-08-24T03:47:45.856Z,74.80
2017-08-24T03:50:14.349Z,74.70
2017-08-24T03:52:42.610Z,75.20
2017-08-24T03:55:11.043Z,75.20
2017-08-24T03:57:40.098Z,75.80
2017-08-24T04:00:08.436Z,75.70
2017-08-24T04:02:36.699Z,76.10
2017-08-24T04:05:05.108Z,76.20
2017-08-24T04:07:33.450Z,76.40
2017-08-24T04:10:01.762Z,76.80
2017-08-24T04:12:30.040Z,76.80
2017-08-24T04:14:58.277Z,77.00
2017-08-24T04:17:26.523Z,77.20
2017-08-24T04:19:54.784Z,77.50
2017-08-24T04:22:25.151Z,77.70
2017-08-24T04:24:53.446Z,78.00
2017-08-24T04:27:21.783Z,78.20
2017-08-24T04:29:50.716Z,79.30
2017-08-24T04:32:19.896Z,79.10
2017-08-24T04:34:48.176Z,78.80
2017-08-24T04:37:16.456Z,79.00
2017-08-24T04:39:44.798Z,79.80
2017-08-24T04:42:13.042Z,79.20
2017-08-24T04:44:42.561Z,79.30
2017-08-24T04:47:10.814Z,79.20
2017-08-24T04:49:39.077Z,79.00
2017-08-24T04:52:07.326Z,78.90
2017-08-24T04:54:35.718Z,78.90
2017-08-24T04:57:03.958Z,78.30
2017-08-24T04:59:32.214Z,78.60
2017-08-24T05:02:00.649Z,78.40
2017-08-24T05:04:29.500Z,78.50
2017-08-24T05:09:44.160Z,78.20
2017-08-24T05:12:13.230Z,78.30
2017-08-24T05:14:41.735Z,78.80
2017-08-24T05:17:10.864Z,78.90
2017-08-24T05:19:39.136Z,78.40
2017-08-24T05:22:07.483Z,78.30
2017-08-24T05:24:36.226Z,78.20
2017-08-24T05:27:04.559Z,77.90
2017-08-24T05:29:32.803Z,78.10
2017-08-24T05:32:01.101Z,78.80
2017-08-24T05:34:29.359Z,78.10
2017-08-24T05:36:57.633Z,78.40
2017-08-24T05:39:25.960Z,77.50
2017-08-24T05:41:55.485Z,77.30
2017-08-24T05:44:24.150Z,77.80
2017-08-24T05:46:52.420Z,77.70
2017-08-24T05:49:21.174Z,77.30
2017-08-24T05:51:50.638Z,77.50
2017-08-24T05:54:19.286Z,76.90
2017-08-24T05:56:47.662Z,77.20
2017-08-24T05:59:16.276Z,77.20
2017-08-24T06:01:45.284Z,76.90
2017-08-24T06:04:14.309Z,76.90
2017-08-24T06:06:42.666Z,76.80
2017-08-24T06:09:11.480Z,77.10
2017-08-24T06:11:40.721Z,77.20
2017-08-24T06:14:09.373Z,77.40
2017-08-24T06:16:38.064Z,77.70
2017-08-24T06:19:08.062Z,77.60
2017-08-24T06:21:37.893Z,77.60
2017-08-24T06:24:06.264Z,78.00
2017-08-24T06:26:37.761Z,78.10
2017-08-24T06:29:06.009Z,78.10
2017-08-24T06:31:34.297Z,78.00
2017-08-24T06:34:02.561Z,78.10
2017-08-24T06:36:31.720Z,78.50
2017-08-24T06:39:01.231Z,78.50
2017-08-24T06:41:29.532Z,78.70
2017-08-24T06:43:57.917Z,79.20
2017-08-24T06:46:26.538Z,79.40
2017-08-24T06:48:54.795Z,79.30
2017-08-24T06:51:23.101Z,79.30
2017-08-24T06:53:51.528Z,79.40
2017-08-24T06:56:19.749Z,80.00
2017-08-24T06:58:49.228Z,79.70
2017-08-24T07:01:17.477Z,79.50
2017-08-24T07:03:45.782Z,79.60
2017-08-24T07:06:14.025Z,80.30
2017-08-24T07:08:43.060Z,79.30
2017-08-24T07:11:11.304Z,79.30
2017-08-24T07:13:39.907Z,79.20
2017-08-24T07:16:08.236Z,78.80
2017-08-24T07:18:36.486Z,78.90
2017-08-24T07:21:04.755Z,78.50
2017-08-24T07:23:33.029Z,77.90
2017-08-24T07:26:01.301Z,78.00
2017-08-24T07:28:29.581Z,77.00
2017-08-24T07:30:58.620Z,76.40
2017-08-24T07:33:27.657Z,76.50
2017-08-24T07:35:56.039Z,76.50
2017-08-24T07:38:24.755Z,76.60
2017-08-24T07:40:53.069Z,76.00
2017-08-24T07:43:21.334Z,75.90
2017-08-24T07:45:49.704Z,76.40
2017-08-24T07:48:17.981Z,75.50
2017-08-24T07:50:46.952Z,74.90
2017-08-24T07:53:15.944Z,74.10
2017-08-24T07:55:44.182Z,73.70
2017-08-24T07:58:12.474Z,72.50
2017-08-24T08:00:40.709Z,72.30
2017-08-24T08:03:09.158Z,71.60
2017-08-24T08:05:37.493Z,72.40
2017-08-24T08:08:05.864Z,71.60
2017-08-24T08:10:34.825Z,71.20
2017-08-24T08:13:03.081Z,70.90
2017-08-24T08:15:31.381Z,70.70
2017-08-24T08:17:59.724Z,69.90
2017-08-24T08:20:28.425Z,69.80
2017-08-24T08:22:57.769Z,68.50
2017-08-24T08:25:26.047Z,66.70
2017-08-24T08:27:54.281Z,67.30
2017-08-24T08:30:22.535Z,68.00
2017-08-24T08:32:52.291Z,68.50
2017-08-24T08:35:20.549Z,66.80
2017-08-24T08:37:49.233Z,65.30
2017-08-24T08:40:18.302Z,64.70
2017-08-24T08:42:46.530Z,64.20
2017-08-24T08:45:14.793Z,62.80
2017-08-24T08:47:43.046Z,63.70
2017-08-24T08:50:11.295Z,63.20
2017-08-24T08:52:39.584Z,62.90
2017-08-24T08:55:07.881Z,62.60
2017-08-24T08:57:36.582Z,62.30
2017-08-24T09:00:04.867Z,61.70
2017-08-24T09:02:33.841Z,62.20
2017-08-24T09:05:02.145Z,62.10
2017-08-24T09:07:30.370Z,61.90
2017-08-24T09:09:58.614Z,61.70
2017-08-24T09:12:26.869Z,61.70
2017-08-24T09:14:55.224Z,60.10
2017-08-24T09:17:23.551Z,58.10
2017-08-24T09:19:51.880Z,57.10
2017-08-24T09:22:20.157Z,56.50
2017-08-24T09:24:48.545Z,56.70
2017-08-24T09:27:16.880Z,55.90
2017-08-24T09:29:45.112Z,55.70
2017-08-24T09:32:13.497Z,55.50
2017-08-24T09:34:42.206Z,54.30
2017-08-24T09:37:12.188Z,53.70
2017-08-24T09:39:40.418Z,50.80
2017-08-24T09:42:08.736Z,48.60
2017-08-24T09:44:36.974Z,47.20
2017-08-24T09:47:05.323Z,47.10
2017-08-24T09:49:33.561Z,47.50
2017-08-24T09:52:02.300Z,47.60
2017-08-24T09:54:30.522Z,47.10
2017-08-24T09:57:00.099Z,46.30
2017-08-24T09:59:29.057Z,44.20
2017-08-24T10:01:57.286Z,45.00
2017-08-24T10:04:25.518Z,45.40
2017-08-24T10:06:53.829Z,42.90
2017-08-24T10:09:22.108Z,44.70
2017-08-24T10:11:50.669Z,44.90
2017-08-24T10:14:18.961Z,44.80
2017-08-24T10:16:47.995Z,44.00
2017-08-24T10:19:16.273Z,44.00
2017-08-24T10:21:45.323Z,42.00
2017-08-24T10:24:15.417Z,41.90
2017-08-24T10:26:43.687Z,41.10
2017-08-24T10:29:11.982Z,42.00
2017-08-24T10:31:40.199Z,42.90
2017-08-24T10:34:09.179Z,41.90
2017-08-24T10:36:37.420Z,40.90
2017-08-24T10:39:05.686Z,41.40
2017-08-24T10:41:33.916Z,41.40
2017-08-24T10:44:02.697Z,42.60
2017-08-24T10:46:30.944Z,41.90
2017-08-24T10:48:59.245Z,41.40
2017-08-24T10:51:27.539Z,42.10
2017-08-24T10:53:55.840Z,41.90
2017-08-24T10:56:24.074Z,42.10
2017-08-24T10:58:52.584Z,41.40
2017-08-24T11:01:20.829Z,40.80
2017-08-24T11:03:49.056Z,40.30
2017-08-24T11:06:17.344Z,39.70
2017-08-24T11:08:46.358Z,40.00
2017-08-24T11:11:14.693Z,40.00
2017-08-24T11:13:43.052Z,41.30
2017-08-24T11:16:11.463Z,42.70
2017-08-24T11:18:39.774Z,43.50
2017-08-24T11:21:08.103Z,43.40
2017-08-24T11:23:36.374Z,42.80
2017-08-24T11:26:04.820Z,42.60
2017-08-24T11:28:33.514Z,43.00
2017-08-24T11:31:01.941Z,43.80
2017-08-24T11:33:30.303Z,43.50
2017-08-24T11:35:58.686Z,43.50
2017-08-24T11:38:27.718Z,41.70
2017-08-24T11:40:56.146Z,41.60
2017-08-24T11:43:24.416Z,41.20
2017-08-24T11:45:52.670Z,40.90
2017-08-24T11:48:20.986Z,40.70
2017-08-24T11:50:49.239Z,41.00
2017-08-24T11:53:18.248Z,42.80
2017-08-24T11:55:46.549Z,43.20
2017-08-24T11:58:14.884Z,43.00
2017-08-24T12:00:43.149Z,43.70
2017-08-24T12:03:11.489Z,43.80
2017-08-24T12:05:39.793Z,43.40
2017-08-24T12:08:08.054Z,43.90
2017-08-24T12:10:36.325Z,43.30
2017-08-24T12:13:04.605Z,42.90
2017-08-24T12:15:32.879Z,42.80
2017-08-24T12:18:01.198Z,42.80
2017-08-24T12:20:29.727Z,42.70
2017-08-24T12:22:58.049Z,42.70
2017-08-24T12:25:26.295Z,42.50
2017-08-24T12:27:54.549Z,42.20
2017-08-24T12:30:22.948Z,41.90
2017-08-24T12:32:51.177Z,42.00
2017-08-24T12:35:20.234Z,42.50
2017-08-24T12:37:49.344Z,41.80
2017-08-24T12:40:18.910Z,40.60
2017-08-24T12:42:47.277Z,39.90
2017-08-24T12:45:17.057Z,40.20
2017-08-24T12:47:45.321Z,39.70
2017-08-24T12:50:14.110Z,39.40
2017-08-24T12:52:42.416Z,39.90
2017-08-24T12:55:10.714Z,39.70
2017-08-24T12:57:39.028Z,39.60
2017-08-24T13:00:07.250Z,40.10
2017-08-24T13:02:35.510Z,40.20
2017-08-24T13:05:03.797Z,39.60
2017-08-24T13:07:32.070Z,39.30
2017-08-24T13:10:00.317Z,39.00
2017-08-24T13:12:29.510Z,38.20
2017-08-24T13:14:58.520Z,37.20
2017-08-24T13:17:27.546Z,37.00
2017-08-24T13:19:55.824Z,36.90
2017-08-24T13:22:24.794Z,36.90
2017-08-24T13:24:54.200Z,38.20
2017-08-24T13:27:22.482Z,38.20
2017-08-24T13:29:50.762Z,38.60
2017-08-24T13:32:19.079Z,39.00
2017-08-24T13:34:47.341Z,38.10
2017-08-24T13:37:15.577Z,38.20
2017-08-24T13:39:43.828Z,38.20
2017-08-24T13:42:12.851Z,39.10
2017-08-24T13:44:41.135Z,39.10
2017-08-24T13:47:09.419Z,39.20
2017-08-24T13:49:37.652Z,39.50
2017-08-24T13:52:05.956Z,40.20
2017-08-24T13:54:34.224Z,40.80
2017-08-24T13:57:03.275Z,40.60
2017-08-24T13:59:31.776Z,40.60
2017-08-24T14:02:00.185Z,40.80
2017-08-24T14:04:28.437Z,41.10
2017-08-24T14:06:56.695Z,41.80
2017-08-24T14:09:25.110Z,41.60
2017-08-24T14:11:53.370Z,42.00
2017-08-24T14:14:21.653Z,42.20
2017-08-24T14:16:49.939Z,42.10
2017-08-24T14:19:18.352Z,41.90
2017-08-24T14:21:46.741Z,41.20
2017-08-24T14:24:15.275Z,41.30
2017-08-24T14:26:43.807Z,41.80
2017-08-24T14:29:13.308Z,42.30
2017-08-24T14:31:41.525Z,42.30
2017-08-24T14:34:10.197Z,42.20
2017-08-24T14:36:40.079Z,42.60
2017-08-24T14:39:08.760Z,42.00
2017-08-24T14:41:37.005Z,42.30
2017-08-24T14:44:05.257Z,43.50
2017-08-24T14:46:34.311Z,43.30
2017-08-24T14:49:02.642Z,43.40
2017-08-24T14:51:31.086Z,43.90
2017-08-24T14:53:59.491Z,46.20
2017-08-24T14:56:28.582Z,44.90
2017-08-24T14:58:56.983Z,44.90
2017-08-24T15:01:25.252Z,45.30
2017-08-24T15:03:53.543Z,45.10
2017-08-24T15:06:21.792Z,45.30
2017-08-24T15:08:50.119Z,44.70
2017-08-24T15:11:18.370Z,44.50
2017-08-24T15:13:54.457Z,44.60
2017-08-24T15:16:32.651Z,45.00
2017-08-24T15:19:01.887Z,44.80
2017-08-24T15:21:30.924Z,44.40
2017-08-24T15:23:59.739Z,44.40
2017-08-24T15:26:29.449Z,45.00
2017-08-24T15:28:57.659Z,45.30
2017-08-24T15:31:26.383Z,46.00
2017-08-24T15:33:54.591Z,45.10
2017-08-24T15:36:22.850Z,44.90
2017-08-24T15:38:51.309Z,45.80
2017-08-24T15:41:20.738Z,45.30
2017-08-24T15:43:49.395Z,45.90
2017-08-24T15:46:19.060Z,45.90
2017-08-24T15:48:47.306Z,45.10
2017-08-24T15:51:16.014Z,45.10
2017-08-24T15:53:44.304Z,45.30
2017-08-24T15:56:12.572Z,45.50
2017-08-24T15:58:40.841Z,46.70
2017-08-24T16:01:09.117Z,47.40
2017-08-24T16:03:37.362Z,46.00
2017-08-24T16:06:05.809Z,45.80
2017-08-24T16:08:34.038Z,45.60
2017-08-24T16:11:03.065Z,46.00
2017-08-24T16:13:32.794Z,45.70
2017-08-24T16:16:01.440Z,45.50
2017-08-24T16:18:30.337Z,45.90
2017-08-24T16:20:58.649Z,45.90
2017-08-24T16:23:26.992Z,45.80
2017-08-24T16:25:56.029Z,47.00
2017-08-24T16:28:24.257Z,46.90
2017-08-24T16:30:53.381Z,46.60
2017-08-24T16:33:21.635Z,46.70
2017-08-24T16:35:49.880Z,47.30
2017-08-24T16:38:18.522Z,47.60
2017-08-24T16:40:46.797Z,46.90
2017-08-24T16:43:15.140Z,47.30
2017-08-24T16:45:44.131Z,47.90
2017-08-24T16:48:13.154Z,47.80
2017-08-24T16:50:41.381Z,47.80
2017-08-24T16:53:10.401Z,47.90
2017-08-24T16:55:38.756Z,47.90
2017-08-24T16:58:07.126Z,47.20
2017-08-24T17:00:37.031Z,47.20
2017-08-24T17:03:05.953Z,47.20
2017-08-24T17:05:34.233Z,46.80
2017-08-24T17:08:02.597Z,47.60
2017-08-24T17:10:30.863Z,46.50
2017-08-24T17:12:59.123Z,46.00
2017-08-24T17:15:27.373Z,46.70
2017-08-24T17:17:55.726Z,47.00
2017-08-24T17:20:24.258Z,46.30
2017-08-24T17:22:52.562Z,46.50
2017-08-24T17:25:21.658Z,47.00
2017-08-24T17:27:49.917Z,47.00
2017-08-24T17:30:18.203Z,47.20
2017-08-24T17:32:46.469Z,47.10
2017-08-24T17:35:14.935Z,46.60
2017-08-24T17:37:43.253Z,46.50
2017-08-24T17:40:11.670Z,46.70
2017-08-24T17:42:40.005Z,46.90
2017-08-24T17:45:08.260Z,47.70
2017-08-24T17:47:36.668Z,48.00
2017-08-24T17:50:08.179Z,50.40
2017-08-24T17:52:38.685Z,50.90
2017-08-24T17:55:06.952Z,50.80
2017-08-24T17:57:35.205Z,50.80
2017-08-24T18:00:03.538Z,50.50
2017-08-24T18:02:31.991Z,50.60
2017-08-24T18:05:02.967Z,50.30
2017-08-24T18:07:31.449Z,50.10
2017-08-24T18:10:01.307Z,49.90
2017-08-24T18:12:32.253Z,50.40
2017-08-24T18:15:00.497Z,50.60
2017-08-24T18:17:29.312Z,51.10
2017-08-24T18:19:57.685Z,51.30
2017-08-24T18:22:25.991Z,51.60
2017-08-24T18:24:54.943Z,52.40
2017-08-24T18:27:24.008Z,52.70
2017-08-24T18:29:52.469Z,53.10
2017-08-24T18:32:20.696Z,53.30
2017-08-24T18:34:48.950Z,54.20
2017-08-24T18:37:17.407Z,53.90
2017-08-24T18:39:45.829Z,54.20
2017-08-24T18:42:14.339Z,54.20
2017-08-24T18:44:42.746Z,54.40
2017-08-24T18:47:11.075Z,54.10
2017-08-24T18:49:50.302Z,54.90
2017-08-24T18:52:20.662Z,55.00
2017-08-24T18:54:48.919Z,55.10
2017-08-24T18:57:17.497Z,55.50
2017-08-24T18:59:45.959Z,55.20
2017-08-24T19:02:14.209Z,55.80
2017-08-24T19:04:42.525Z,55.60
2017-08-24T19:07:11.602Z,55.60
2017-08-24T19:09:39.857Z,56.00
2017-08-24T19:12:08.565Z,56.10
2017-08-24T19:14:36.831Z,56.40
2017-08-24T19:17:05.248Z,56.40
2017-08-24T19:19:33.494Z,56.70
2017-08-24T19:22:01.777Z,56.90
2017-08-24T19:24:30.195Z,56.70
2017-08-24T19:27:00.909Z,56.80
2017-08-24T19:29:31.829Z,58.20
2017-08-24T19:32:01.028Z,58.10
2017-08-24T19:34:32.151Z,59.00
2017-08-24T19:37:02.269Z,59.40
2017-08-24T19:39:32.131Z,59.60
2017-08-24T19:42:01.197Z,60.20
2017-08-24T19:44:36.564Z,60.10
2017-08-24T19:47:07.055Z,60.50
2017-08-24T19:49:39.839Z,61.00
2017-08-24T19:52:12.404Z,61.00
2017-08-24T19:54:41.453Z,61.00
2017-08-24T19:57:09.801Z,61.10
2017-08-24T19:59:41.709Z,61.60
2017-08-24T20:02:10.101Z,61.80
2017-08-24T20:04:38.413Z,61.90
2017-08-24T20:07:06.657Z,61.70
2017-08-24T20:09:34.949Z,61.60
2017-08-24T20:12:03.239Z,61.10
2017-08-24T20:14:31.501Z,62.00
2017-08-24T20:16:59.814Z,61.60
2017-08-24T20:19:28.035Z,61.50
2017-08-24T20:21:56.351Z,61.40
2017-08-24T20:24:24.664Z,61.30
2017-08-24T20:26:53.884Z,61.70
2017-08-24T20:29:22.446Z,61.60
2017-08-24T20:31:50.809Z,60.70
2017-08-24T20:34:19.054Z,57.80
2017-08-24T20:36:47.508Z,57.10
2017-08-24T20:39:15.815Z,58.00
2017-08-24T20:41:44.033Z,60.40
2017-08-24T20:44:12.394Z,60.70
2017-08-24T20:46:40.653Z,62.20
2017-08-24T20:49:08.938Z,62.90
2017-08-24T20:51:37.185Z,64.00
2017-08-24T20:54:05.441Z,64.20
2017-08-24T20:56:33.688Z,64.60
2017-08-24T20:59:01.956Z,65.70
2017-08-24T21:01:30.193Z,65.00
2017-08-24T21:03:58.465Z,64.50
2017-08-24T21:06:26.714Z,64.50
2017-08-24T21:08:55.089Z,63.40
2017-08-24T21:11:23.815Z,63.40
2017-08-24T21:13:52.082Z,63.10
2017-08-24T21:16:20.366Z,63.60
2017-08-24T21:18:48.646Z,62.30
2017-08-24T21:21:17.021Z,61.70
2017-08-24T21:23:45.326Z,61.80
2017-08-24T21:26:13.573Z,61.90
2017-08-24T21:28:41.828Z,62.40
2017-08-24T21:31:10.080Z,62.50
2017-08-24T21:33:39.133Z,65.60
2017-08-24T21:36:07.418Z,65.40
2017-08-24T21:38:35.653Z,66.00
2017-08-24T21:41:03.873Z,66.40
2017-08-24T21:43:32.146Z,66.60
2017-08-24T21:46:00.456Z,66.80
2017-08-24T21:48:28.810Z,66.60
2017-08-24T21:50:57.268Z,66.10
2017-08-24T21:53:25.537Z,66.00
2017-08-24T21:55:53.813Z,65.80
2017-08-24T21:58:22.068Z,65.90
2017-08-24T22:00:50.308Z,66.00
2017-08-24T22:03:18.605Z,66.10
2017-08-24T22:05:47.637Z,66.10
2017-08-24T22:08:15.949Z,66.10
2017-08-24T22:10:44.173Z,66.30
2017-08-24T22:13:12.422Z,66.40
2017-08-24T22:15:40.709Z,66.50
2017-08-24T22:18:09.005Z,67.30
2017-08-24T22:20:37.309Z,67.60
2017-08-24T22:23:06.310Z,68.40
2017-08-24T22:25:35.329Z,68.70
2017-08-24T22:28:03.962Z,68.60
2017-08-24T22:30:32.247Z,69.30
2017-08-24T22:33:00.570Z,69.70
2017-08-24T22:35:28.810Z,69.80
2017-08-24T22:37:57.093Z,70.00
2017-08-24T22:40:25.372Z,70.00
2017-08-24T22:42:53.720Z,69.80
2017-08-24T22:45:22.165Z,69.80
2017-08-24T22:47:50.486Z,70.50
2017-08-24T22:50:18.810Z,69.90
2017-08-24T22:52:47.295Z,70.00
2017-08-24T22:58:20.272Z,69.60
2017-08-24T23:00:54.181Z,69.60
2017-08-24T23:03:27.967Z,69.40
2017-08-24T23:05:56.271Z,69.50
2017-08-24T23:08:24.667Z,69.60
2017-08-24T23:10:52.934Z,69.60
2017-08-24T23:13:21.209Z,69.80
2017-08-24T23:15:49.700Z,70.10
2017-08-24T23:18:17.942Z,70.20
2017-08-24T23:20:47.476Z,70.10
2017-08-24T23:23:16.870Z,70.30
2017-08-24T23:25:45.167Z,70.30
2017-08-24T23:28:13.446Z,70.60
2017-08-24T23:30:41.692Z,70.60
2017-08-24T23:33:11.533Z,70.70
2017-08-24T23:35:39.776Z,70.80
2017-08-24T23:38:08.055Z,70.80
2017-08-24T23:40:37.153Z,71.70
2017-08-24T23:43:05.415Z,71.60
2017-08-24T23:45:33.728Z,71.90
2017-08-24T23:48:01.965Z,72.50
2017-08-24T23:50:30.245Z,72.80
2017-08-24T23:52:58.507Z,73.50
2017-08-24T23:55:26.793Z,73.60
2017-08-24T23:57:55.040Z,74.30
